sensor_id;sensor_type;location;lat;lon;timestamp;P1;durP1;ratioP1;P2;durP2;ratioP2
9160;SDS011;4615;51.340;8.288;2023-04-24T00:00:50;1.83;;;0.98;;
9160;SDS011;4615;51.340;8.288;2023-04-24T00:03:17;0.90;;;0.90;;
9160;SDS011;4615;51.340;8.288;2023-04-24T00:05:46;0.90;;;0.90;;
9160;SDS011;4615;51.340;8.288;2023-04-24T00:08:12;0.82;;;0.82;;
9160;SDS011;4615;51.340;8.288;2023-04-24T00:10:39;1.17;;;1.08;;
9160;SDS011;4615;51.340;8.288;2023-04-24T00:13:06;0.95;;;0.95;;
9160;SDS011;4615;51.340;8.288;2023-04-24T00:15:33;0.90;;;0.90;;
9160;SDS011;4615;51.340;8.288;2023-04-24T00:17:59;0.90;;;0.90;;
9160;SDS011;4615;51.340;8.288;2023-04-24T00:20:26;1.45;;;1.00;;
9160;SDS011;4615;51.340;8.288;2023-04-24T00:22:54;1.13;;;1.00;;
9160;SDS011;4615;51.340;8.288;2023-04-24T00:25:20;0.85;;;0.85;;
9160;SDS011;4615;51.340;8.288;2023-04-24T00:27:47;1.20;;;0.90;;
9160;SDS011;4615;51.340;8.288;2023-04-24T00:30:15;1.13;;;0.90;;
9160;SDS011;4615;51.340;8.288;2023-04-24T00:32:41;1.17;;;0.90;;
9160;SDS011;4615;51.340;8.288;2023-04-24T00:35:08;1.02;;;0.90;;
9160;SDS011;4615;51.340;8.288;2023-04-24T00:37:36;1.57;;;0.90;;
9160;SDS011;4615;51.340;8.288;2023-04-24T00:40:02;1.10;;;1.00;;
9160;SDS011;4615;51.340;8.288;2023-04-24T00:42:29;1.70;;;1.00;;
9160;SDS011;4615;51.340;8.288;2023-04-24T00:44:55;0.90;;;0.90;;
9160;SDS011;4615;51.340;8.288;2023-04-24T00:47:24;0.90;;;0.90;;
9160;SDS011;4615;51.340;8.288;2023-04-24T00:49:51;1.02;;;1.00;;
9160;SDS011;4615;51.340;8.288;2023-04-24T00:52:17;1.15;;;1.00;;
9160;SDS011;4615;51.340;8.288;2023-04-24T00:54:44;1.00;;;1.00;;
9160;SDS011;4615;51.340;8.288;2023-04-24T00:57:10;1.60;;;1.20;;
9160;SDS011;4615;51.340;8.288;2023-04-24T00:59:37;1.17;;;1.07;;
9160;SDS011;4615;51.340;8.288;2023-04-24T01:02:06;1.05;;;1.00;;
9160;SDS011;4615;51.340;8.288;2023-04-24T01:04:33;1.30;;;1.10;;
9160;SDS011;4615;51.340;8.288;2023-04-24T01:07:00;1.00;;;1.00;;
9160;SDS011;4615;51.340;8.288;2023-04-24T01:09:27;2.30;;;1.10;;
9160;SDS011;4615;51.340;8.288;2023-04-24T01:11:53;1.20;;;1.10;;
9160;SDS011;4615;51.340;8.288;2023-04-24T01:14:20;1.58;;;1.20;;
9160;SDS011;4615;51.340;8.288;2023-04-24T01:16:46;1.20;;;1.10;;
9160;SDS011;4615;51.340;8.288;2023-04-24T01:19:12;1.20;;;1.10;;
9160;SDS011;4615;51.340;8.288;2023-04-24T01:21:42;1.40;;;1.20;;
9160;SDS011;4615;51.340;8.288;2023-04-24T01:24:10;1.40;;;1.10;;
9160;SDS011;4615;51.340;8.288;2023-04-24T01:26:37;1.30;;;1.20;;
9160;SDS011;4615;51.340;8.288;2023-04-24T01:29:03;1.40;;;1.30;;
9160;SDS011;4615;51.340;8.288;2023-04-24T01:31:30;1.35;;;1.23;;
9160;SDS011;4615;51.340;8.288;2023-04-24T01:33:56;1.45;;;1.20;;
9160;SDS011;4615;51.340;8.288;2023-04-24T01:36:23;1.40;;;1.23;;
9160;SDS011;4615;51.340;8.288;2023-04-24T01:38:50;1.10;;;1.10;;
9160;SDS011;4615;51.340;8.288;2023-04-24T01:41:18;1.30;;;1.20;;
9160;SDS011;4615;51.340;8.288;2023-04-24T01:43:45;1.20;;;1.10;;
9160;SDS011;4615;51.340;8.288;2023-04-24T01:46:11;1.17;;;1.15;;
9160;SDS011;4615;51.340;8.288;2023-04-24T01:48:38;1.23;;;1.13;;
9160;SDS011;4615;51.340;8.288;2023-04-24T01:51:04;1.20;;;1.20;;
9160;SDS011;4615;51.340;8.288;2023-04-24T01:53:31;1.50;;;1.30;;
9160;SDS011;4615;51.340;8.288;2023-04-24T01:55:57;1.20;;;1.10;;
9160;SDS011;4615;51.340;8.288;2023-04-24T01:58:25;1.70;;;1.20;;
9160;SDS011;4615;51.340;8.288;2023-04-24T02:00:51;1.70;;;1.10;;
9160;SDS011;4615;51.340;8.288;2023-04-24T02:03:18;2.15;;;1.20;;
9160;SDS011;4615;51.340;8.288;2023-04-24T02:05:44;1.37;;;1.27;;
9160;SDS011;4615;51.340;8.288;2023-04-24T02:08:10;1.50;;;1.40;;
9160;SDS011;4615;51.340;8.288;2023-04-24T02:10:37;1.20;;;1.10;;
9160;SDS011;4615;51.340;8.288;2023-04-24T02:13:03;1.10;;;1.10;;
9160;SDS011;4615;51.340;8.288;2023-04-24T02:15:31;1.70;;;1.27;;
9160;SDS011;4615;51.340;8.288;2023-04-24T02:17:58;1.30;;;1.20;;
9160;SDS011;4615;51.340;8.288;2023-04-24T02:20:24;2.67;;;1.30;;
9160;SDS011;4615;51.340;8.288;2023-04-24T02:22:51;1.70;;;1.40;;
9160;SDS011;4615;51.340;8.288;2023-04-24T02:25:17;1.20;;;1.10;;
9160;SDS011;4615;51.340;8.288;2023-04-24T02:27:44;1.92;;;1.27;;
9160;SDS011;4615;51.340;8.288;2023-04-24T02:30:10;2.23;;;1.20;;
9160;SDS011;4615;51.340;8.288;2023-04-24T02:32:38;1.30;;;1.20;;
9160;SDS011;4615;51.340;8.288;2023-04-24T02:35:05;1.25;;;1.15;;
9160;SDS011;4615;51.340;8.288;2023-04-24T02:37:32;1.58;;;1.30;;
9160;SDS011;4615;51.340;8.288;2023-04-24T02:39:58;1.50;;;1.20;;
9160;SDS011;4615;51.340;8.288;2023-04-24T02:42:24;1.65;;;1.20;;
9160;SDS011;4615;51.340;8.288;2023-04-24T02:44:51;1.40;;;1.30;;
9160;SDS011;4615;51.340;8.288;2023-04-24T02:47:17;2.15;;;1.40;;
9160;SDS011;4615;51.340;8.288;2023-04-24T02:49:45;1.30;;;1.20;;
9160;SDS011;4615;51.340;8.288;2023-04-24T02:52:11;2.35;;;1.20;;
9160;SDS011;4615;51.340;8.288;2023-04-24T02:54:38;1.48;;;1.20;;
9160;SDS011;4615;51.340;8.288;2023-04-24T02:57:04;2.10;;;1.30;;
9160;SDS011;4615;51.340;8.288;2023-04-24T02:59:31;1.23;;;1.20;;
9160;SDS011;4615;51.340;8.288;2023-04-24T03:01:58;1.58;;;1.25;;
9160;SDS011;4615;51.340;8.288;2023-04-24T03:04:24;1.30;;;1.20;;
9160;SDS011;4615;51.340;8.288;2023-04-24T03:06:52;1.45;;;1.35;;
9160;SDS011;4615;51.340;8.288;2023-04-24T03:09:19;1.55;;;1.30;;
9160;SDS011;4615;51.340;8.288;2023-04-24T03:11:46;1.42;;;1.30;;
9160;SDS011;4615;51.340;8.288;2023-04-24T03:14:13;2.10;;;1.30;;
9160;SDS011;4615;51.340;8.288;2023-04-24T03:16:40;2.03;;;1.30;;
9160;SDS011;4615;51.340;8.288;2023-04-24T03:19:06;1.40;;;1.30;;
9160;SDS011;4615;51.340;8.288;2023-04-24T03:21:32;1.45;;;1.30;;
9160;SDS011;4615;51.340;8.288;2023-04-24T03:24:02;1.60;;;1.50;;
9160;SDS011;4615;51.340;8.288;2023-04-24T03:26:28;1.50;;;1.40;;
9160;SDS011;4615;51.340;8.288;2023-04-24T03:28:55;1.50;;;1.40;;
9160;SDS011;4615;51.340;8.288;2023-04-24T03:31:21;1.75;;;1.35;;
9160;SDS011;4615;51.340;8.288;2023-04-24T03:33:47;1.83;;;1.33;;
9160;SDS011;4615;51.340;8.288;2023-04-24T03:36:14;1.40;;;1.30;;
9160;SDS011;4615;51.340;8.288;2023-04-24T03:38:40;1.93;;;1.50;;
9160;SDS011;4615;51.340;8.288;2023-04-24T03:41:08;1.98;;;1.30;;
9160;SDS011;4615;51.340;8.288;2023-04-24T03:43:34;2.30;;;1.50;;
9160;SDS011;4615;51.340;8.288;2023-04-24T03:46:01;2.00;;;1.50;;
9160;SDS011;4615;51.340;8.288;2023-04-24T03:48:27;1.70;;;1.50;;
9160;SDS011;4615;51.340;8.288;2023-04-24T03:50:54;1.60;;;1.50;;
9160;SDS011;4615;51.340;8.288;2023-04-24T03:53:20;1.60;;;1.50;;
9160;SDS011;4615;51.340;8.288;2023-04-24T03:55:49;1.95;;;1.70;;
9160;SDS011;4615;51.340;8.288;2023-04-24T03:58:17;4.20;;;1.97;;
9160;SDS011;4615;51.340;8.288;2023-04-24T04:00:43;2.55;;;2.33;;
9160;SDS011;4615;51.340;8.288;2023-04-24T04:03:11;2.97;;;2.55;;
9160;SDS011;4615;51.340;8.288;2023-04-24T04:05:38;3.20;;;2.93;;
9160;SDS011;4615;51.340;8.288;2023-04-24T04:08:04;3.10;;;2.80;;
9160;SDS011;4615;51.340;8.288;2023-04-24T04:10:31;3.60;;;3.30;;
9160;SDS011;4615;51.340;8.288;2023-04-24T04:12:57;3.70;;;3.42;;
9160;SDS011;4615;51.340;8.288;2023-04-24T04:15:25;3.80;;;3.50;;
9160;SDS011;4615;51.340;8.288;2023-04-24T04:17:51;3.83;;;3.53;;
9160;SDS011;4615;51.340;8.288;2023-04-24T04:20:18;4.32;;;3.95;;
9160;SDS011;4615;51.340;8.288;2023-04-24T04:22:44;4.70;;;4.00;;
9160;SDS011;4615;51.340;8.288;2023-04-24T04:25:10;4.22;;;3.75;;
9160;SDS011;4615;51.340;8.288;2023-04-24T04:27:38;4.25;;;3.85;;
9160;SDS011;4615;51.340;8.288;2023-04-24T04:30:07;4.35;;;3.95;;
9160;SDS011;4615;51.340;8.288;2023-04-24T04:32:35;4.20;;;3.80;;
9160;SDS011;4615;51.340;8.288;2023-04-24T04:35:01;4.33;;;3.93;;
9160;SDS011;4615;51.340;8.288;2023-04-24T04:37:28;4.47;;;4.07;;
9160;SDS011;4615;51.340;8.288;2023-04-24T04:39:55;4.30;;;4.00;;
9160;SDS011;4615;51.340;8.288;2023-04-24T04:42:23;4.50;;;4.10;;
9160;SDS011;4615;51.340;8.288;2023-04-24T04:44:49;4.77;;;4.23;;
9160;SDS011;4615;51.340;8.288;2023-04-24T04:47:16;5.28;;;4.78;;
9160;SDS011;4615;51.340;8.288;2023-04-24T04:49:44;5.07;;;4.68;;
9160;SDS011;4615;51.340;8.288;2023-04-24T04:52:10;4.95;;;4.53;;
9160;SDS011;4615;51.340;8.288;2023-04-24T04:54:36;5.20;;;4.80;;
9160;SDS011;4615;51.340;8.288;2023-04-24T04:57:03;5.50;;;5.10;;
9160;SDS011;4615;51.340;8.288;2023-04-24T04:59:29;6.07;;;5.47;;
9160;SDS011;4615;51.340;8.288;2023-04-24T05:01:56;5.80;;;5.30;;
9160;SDS011;4615;51.340;8.288;2023-04-24T05:04:22;6.55;;;5.57;;
9160;SDS011;4615;51.340;8.288;2023-04-24T05:06:50;6.30;;;5.70;;
9160;SDS011;4615;51.340;8.288;2023-04-24T05:09:17;6.25;;;5.65;;
9160;SDS011;4615;51.340;8.288;2023-04-24T05:11:43;6.70;;;6.10;;
9160;SDS011;4615;51.340;8.288;2023-04-24T05:14:09;6.90;;;6.30;;
9160;SDS011;4615;51.340;8.288;2023-04-24T05:16:37;7.45;;;6.82;;
9160;SDS011;4615;51.340;8.288;2023-04-24T05:19:03;10.87;;;7.03;;
9160;SDS011;4615;51.340;8.288;2023-04-24T05:21:30;8.52;;;7.65;;
9160;SDS011;4615;51.340;8.288;2023-04-24T05:23:58;8.07;;;7.38;;
9160;SDS011;4615;51.340;8.288;2023-04-24T05:26:24;8.10;;;7.30;;
9160;SDS011;4615;51.340;8.288;2023-04-24T05:28:51;8.10;;;7.40;;
9160;SDS011;4615;51.340;8.288;2023-04-24T05:31:17;8.05;;;7.30;;
9160;SDS011;4615;51.340;8.288;2023-04-24T05:33:43;8.48;;;7.68;;
9160;SDS011;4615;51.340;8.288;2023-04-24T05:36:10;8.38;;;7.57;;
9160;SDS011;4615;51.340;8.288;2023-04-24T05:38:36;8.30;;;7.47;;
9160;SDS011;4615;51.340;8.288;2023-04-24T05:41:04;8.15;;;7.47;;
9160;SDS011;4615;51.340;8.288;2023-04-24T05:43:30;8.30;;;7.50;;
9160;SDS011;4615;51.340;8.288;2023-04-24T05:45:57;7.97;;;7.17;;
9160;SDS011;4615;51.340;8.288;2023-04-24T05:48:23;8.38;;;7.60;;
9160;SDS011;4615;51.340;8.288;2023-04-24T05:50:49;8.23;;;7.53;;
9160;SDS011;4615;51.340;8.288;2023-04-24T05:53:17;8.77;;;7.97;;
9160;SDS011;4615;51.340;8.288;2023-04-24T05:55:43;8.00;;;7.20;;
9160;SDS011;4615;51.340;8.288;2023-04-24T05:58:11;8.20;;;7.50;;
9160;SDS011;4615;51.340;8.288;2023-04-24T06:00:39;8.85;;;7.68;;
9160;SDS011;4615;51.340;8.288;2023-04-24T06:03:07;8.10;;;7.40;;
9160;SDS011;4615;51.340;8.288;2023-04-24T06:05:34;7.50;;;6.90;;
9160;SDS011;4615;51.340;8.288;2023-04-24T06:08:01;8.27;;;7.47;;
9160;SDS011;4615;51.340;8.288;2023-04-24T06:10:27;7.93;;;7.22;;
9160;SDS011;4615;51.340;8.288;2023-04-24T06:12:53;7.60;;;6.90;;
9160;SDS011;4615;51.340;8.288;2023-04-24T06:15:22;8.30;;;7.50;;
9160;SDS011;4615;51.340;8.288;2023-04-24T06:17:49;7.53;;;6.82;;
9160;SDS011;4615;51.340;8.288;2023-04-24T06:20:15;7.15;;;6.55;;
9160;SDS011;4615;51.340;8.288;2023-04-24T06:22:41;7.32;;;6.72;;
9160;SDS011;4615;51.340;8.288;2023-04-24T06:25:08;7.40;;;6.70;;
9160;SDS011;4615;51.340;8.288;2023-04-24T06:27:35;7.40;;;6.77;;
9160;SDS011;4615;51.340;8.288;2023-04-24T06:30:01;6.72;;;6.13;;
9160;SDS011;4615;51.340;8.288;2023-04-24T06:32:29;7.15;;;6.45;;
9160;SDS011;4615;51.340;8.288;2023-04-24T06:34:56;7.57;;;6.88;;
9160;SDS011;4615;51.340;8.288;2023-04-24T06:37:23;7.47;;;6.78;;
9160;SDS011;4615;51.340;8.288;2023-04-24T06:39:50;7.13;;;6.47;;
9160;SDS011;4615;51.340;8.288;2023-04-24T06:42:16;7.03;;;6.43;;
9160;SDS011;4615;51.340;8.288;2023-04-24T06:44:42;6.57;;;5.97;;
9160;SDS011;4615;51.340;8.288;2023-04-24T06:47:10;6.53;;;5.93;;
9160;SDS011;4615;51.340;8.288;2023-04-24T06:49:39;6.70;;;6.00;;
9160;SDS011;4615;51.340;8.288;2023-04-24T06:52:06;6.93;;;6.32;;
9160;SDS011;4615;51.340;8.288;2023-04-24T06:54:32;6.75;;;6.15;;
9160;SDS011;4615;51.340;8.288;2023-04-24T06:56:59;6.78;;;6.20;;
9160;SDS011;4615;51.340;8.288;2023-04-24T06:59:28;6.47;;;5.88;;
9160;SDS011;4615;51.340;8.288;2023-04-24T07:01:54;6.20;;;5.70;;
9160;SDS011;4615;51.340;8.288;2023-04-24T07:04:21;6.60;;;6.00;;
9160;SDS011;4615;51.340;8.288;2023-04-24T07:06:49;6.03;;;5.53;;
9160;SDS011;4615;51.340;8.288;2023-04-24T07:09:16;6.47;;;5.95;;
9160;SDS011;4615;51.340;8.288;2023-04-24T07:11:43;6.20;;;5.63;;
9160;SDS011;4615;51.340;8.288;2023-04-24T07:14:09;6.75;;;6.15;;
9160;SDS011;4615;51.340;8.288;2023-04-24T07:16:36;6.55;;;5.95;;
9160;SDS011;4615;51.340;8.288;2023-04-24T07:19:02;6.30;;;5.70;;
9160;SDS011;4615;51.340;8.288;2023-04-24T07:21:31;6.03;;;5.50;;
9160;SDS011;4615;51.340;8.288;2023-04-24T07:23:59;6.35;;;5.75;;
9160;SDS011;4615;51.340;8.288;2023-04-24T07:26:25;6.20;;;5.60;;
9160;SDS011;4615;51.340;8.288;2023-04-24T07:28:52;6.55;;;5.95;;
9160;SDS011;4615;51.340;8.288;2023-04-24T07:31:19;6.13;;;5.53;;
9160;SDS011;4615;51.340;8.288;2023-04-24T07:33:46;5.82;;;5.32;;
9160;SDS011;4615;51.340;8.288;2023-04-24T07:36:12;5.97;;;5.47;;
9160;SDS011;4615;51.340;8.288;2023-04-24T07:38:42;5.73;;;5.23;;
9160;SDS011;4615;51.340;8.288;2023-04-24T07:41:09;5.70;;;5.10;;
9160;SDS011;4615;51.340;8.288;2023-04-24T07:43:36;6.18;;;5.68;;
9160;SDS011;4615;51.340;8.288;2023-04-24T07:46:02;5.93;;;5.32;;
9160;SDS011;4615;51.340;8.288;2023-04-24T07:48:29;5.90;;;5.40;;
9160;SDS011;4615;51.340;8.288;2023-04-24T07:50:55;5.70;;;5.20;;
9160;SDS011;4615;51.340;8.288;2023-04-24T07:53:21;5.50;;;5.00;;
9160;SDS011;4615;51.340;8.288;2023-04-24T07:55:48;5.05;;;4.63;;
9160;SDS011;4615;51.340;8.288;2023-04-24T07:58:15;5.22;;;4.72;;
9160;SDS011;4615;51.340;8.288;2023-04-24T08:00:42;5.65;;;5.10;;
9160;SDS011;4615;51.340;8.288;2023-04-24T08:03:08;5.75;;;4.88;;
9160;SDS011;4615;51.340;8.288;2023-04-24T08:05:35;5.53;;;4.88;;
9160;SDS011;4615;51.340;8.288;2023-04-24T08:08:01;5.15;;;4.70;;
9160;SDS011;4615;51.340;8.288;2023-04-24T08:10:27;5.50;;;4.80;;
9160;SDS011;4615;51.340;8.288;2023-04-24T08:12:54;5.07;;;4.60;;
9160;SDS011;4615;51.340;8.288;2023-04-24T08:15:22;4.97;;;4.47;;
9160;SDS011;4615;51.340;8.288;2023-04-24T08:17:49;5.72;;;4.07;;
9160;SDS011;4615;51.340;8.288;2023-04-24T08:20:16;4.50;;;4.10;;
9160;SDS011;4615;51.340;8.288;2023-04-24T08:22:42;4.10;;;3.80;;
9160;SDS011;4615;51.340;8.288;2023-04-24T08:25:10;4.78;;;4.28;;
9160;SDS011;4615;51.340;8.288;2023-04-24T08:27:36;3.72;;;3.42;;
9160;SDS011;4615;51.340;8.288;2023-04-24T08:30:04;3.75;;;3.45;;
9160;SDS011;4615;51.340;8.288;2023-04-24T08:32:32;5.75;;;3.30;;
9160;SDS011;4615;51.340;8.288;2023-04-24T08:34:58;3.40;;;3.10;;
9160;SDS011;4615;51.340;8.288;2023-04-24T08:37:25;3.30;;;3.00;;
9160;SDS011;4615;51.340;8.288;2023-04-24T08:39:51;2.93;;;2.63;;
9160;SDS011;4615;51.340;8.288;2023-04-24T08:42:18;2.80;;;2.45;;
9160;SDS011;4615;51.340;8.288;2023-04-24T08:44:46;2.60;;;2.40;;
9160;SDS011;4615;51.340;8.288;2023-04-24T08:47:12;2.28;;;2.10;;
9160;SDS011;4615;51.340;8.288;2023-04-24T08:49:40;3.10;;;2.30;;
9160;SDS011;4615;51.340;8.288;2023-04-24T08:52:06;2.17;;;1.97;;
9160;SDS011;4615;51.340;8.288;2023-04-24T08:54:34;1.90;;;1.80;;
9160;SDS011;4615;51.340;8.288;2023-04-24T08:57:01;2.72;;;1.95;;
9160;SDS011;4615;51.340;8.288;2023-04-24T08:59:28;2.05;;;1.90;;
9160;SDS011;4615;51.340;8.288;2023-04-24T09:01:55;2.40;;;2.10;;
9160;SDS011;4615;51.340;8.288;2023-04-24T09:04:22;3.00;;;2.22;;
9160;SDS011;4615;51.340;8.288;2023-04-24T09:06:51;2.42;;;2.00;;
9160;SDS011;4615;51.340;8.288;2023-04-24T09:09:17;2.20;;;2.00;;
9160;SDS011;4615;51.340;8.288;2023-04-24T09:11:44;2.30;;;2.10;;
9160;SDS011;4615;51.340;8.288;2023-04-24T09:14:10;2.30;;;2.10;;
9160;SDS011;4615;51.340;8.288;2023-04-24T09:16:37;2.20;;;2.00;;
9160;SDS011;4615;51.340;8.288;2023-04-24T09:19:03;2.28;;;2.08;;
9160;SDS011;4615;51.340;8.288;2023-04-24T09:21:31;2.10;;;2.00;;
9160;SDS011;4615;51.340;8.288;2023-04-24T09:23:59;1.93;;;1.80;;
9160;SDS011;4615;51.340;8.288;2023-04-24T09:26:26;1.80;;;1.70;;
9160;SDS011;4615;51.340;8.288;2023-04-24T09:28:56;1.70;;;1.60;;
9160;SDS011;4615;51.340;8.288;2023-04-24T09:31:22;1.83;;;1.63;;
9160;SDS011;4615;51.340;8.288;2023-04-24T09:33:56;1.70;;;1.60;;
9160;SDS011;4615;51.340;8.288;2023-04-24T09:36:26;1.30;;;1.20;;
9160;SDS011;4615;51.340;8.288;2023-04-24T09:38:53;1.30;;;1.20;;
9160;SDS011;4615;51.340;8.288;2023-04-24T09:41:24;1.35;;;1.20;;
9160;SDS011;4615;51.340;8.288;2023-04-24T09:43:52;1.00;;;0.90;;
9160;SDS011;4615;51.340;8.288;2023-04-24T09:46:19;1.00;;;1.00;;
9160;SDS011;4615;51.340;8.288;2023-04-24T09:48:48;0.80;;;0.80;;
9160;SDS011;4615;51.340;8.288;2023-04-24T09:51:14;0.80;;;0.80;;
9160;SDS011;4615;51.340;8.288;2023-04-24T09:53:45;0.80;;;0.80;;
9160;SDS011;4615;51.340;8.288;2023-04-24T09:56:11;0.80;;;0.80;;
9160;SDS011;4615;51.340;8.288;2023-04-24T09:58:39;0.80;;;0.80;;
9160;SDS011;4615;51.340;8.288;2023-04-24T10:01:06;0.75;;;0.75;;
9160;SDS011;4615;51.340;8.288;2023-04-24T10:03:32;0.70;;;0.70;;
9160;SDS011;4615;51.340;8.288;2023-04-24T10:05:59;0.80;;;0.80;;
9160;SDS011;4615;51.340;8.288;2023-04-24T10:08:25;0.90;;;0.70;;
9160;SDS011;4615;51.340;8.288;2023-04-24T10:10:52;0.60;;;0.60;;
9160;SDS011;4615;51.340;8.288;2023-04-24T10:13:19;0.70;;;0.70;;
9160;SDS011;4615;51.340;8.288;2023-04-24T10:15:46;0.57;;;0.57;;
9160;SDS011;4615;51.340;8.288;2023-04-24T10:18:14;0.60;;;0.60;;
9160;SDS011;4615;51.340;8.288;2023-04-24T10:20:41;0.80;;;0.73;;
9160;SDS011;4615;51.340;8.288;2023-04-24T10:23:08;0.75;;;0.75;;
9160;SDS011;4615;51.340;8.288;2023-04-24T10:25:35;1.10;;;0.73;;
9160;SDS011;4615;51.340;8.288;2023-04-24T10:28:03;0.68;;;0.68;;
9160;SDS011;4615;51.340;8.288;2023-04-24T10:30:30;0.90;;;0.90;;
9160;SDS011;4615;51.340;8.288;2023-04-24T10:33:01;1.45;;;0.90;;
9160;SDS011;4615;51.340;8.288;2023-04-24T10:35:31;1.60;;;0.80;;
9160;SDS011;4615;51.340;8.288;2023-04-24T10:37:59;0.80;;;0.80;;
9160;SDS011;4615;51.340;8.288;2023-04-24T10:40:30;0.80;;;0.80;;
9160;SDS011;4615;51.340;8.288;2023-04-24T10:42:56;0.80;;;0.73;;
9160;SDS011;4615;51.340;8.288;2023-04-24T10:45:23;0.80;;;0.80;;
9160;SDS011;4615;51.340;8.288;2023-04-24T10:47:55;0.90;;;0.70;;
9160;SDS011;4615;51.340;8.288;2023-04-24T10:50:24;0.73;;;0.70;;
9160;SDS011;4615;51.340;8.288;2023-04-24T10:52:51;0.80;;;0.80;;
9160;SDS011;4615;51.340;8.288;2023-04-24T10:58:01;3.13;;;1.13;;
9160;SDS011;4615;51.340;8.288;2023-04-24T11:00:27;1.00;;;1.00;;
9160;SDS011;4615;51.340;8.288;2023-04-24T11:02:54;1.40;;;0.80;;
9160;SDS011;4615;51.340;8.288;2023-04-24T11:05:22;0.90;;;0.90;;
9160;SDS011;4615;51.340;8.288;2023-04-24T11:10:35;1.00;;;0.90;;
9160;SDS011;4615;51.340;8.288;2023-04-24T11:13:03;1.20;;;0.90;;
9160;SDS011;4615;51.340;8.288;2023-04-24T11:15:30;0.90;;;0.90;;
9160;SDS011;4615;51.340;8.288;2023-04-24T11:17:56;1.00;;;1.00;;
9160;SDS011;4615;51.340;8.288;2023-04-24T11:20:23;1.35;;;1.10;;
9160;SDS011;4615;51.340;8.288;2023-04-24T11:22:51;1.52;;;1.30;;
9160;SDS011;4615;51.340;8.288;2023-04-24T11:25:22;1.35;;;1.25;;
9160;SDS011;4615;51.340;8.288;2023-04-24T11:27:51;1.17;;;1.10;;
9160;SDS011;4615;51.340;8.288;2023-04-24T11:30:28;1.20;;;1.10;;
9160;SDS011;4615;51.340;8.288;2023-04-24T11:32:55;1.27;;;1.00;;
9160;SDS011;4615;51.340;8.288;2023-04-24T11:35:27;1.00;;;1.00;;
9160;SDS011;4615;51.340;8.288;2023-04-24T11:37:55;1.00;;;1.00;;
9160;SDS011;4615;51.340;8.288;2023-04-24T11:40:22;1.10;;;1.10;;
9160;SDS011;4615;51.340;8.288;2023-04-24T11:42:53;1.17;;;1.17;;
9160;SDS011;4615;51.340;8.288;2023-04-24T11:45:23;1.30;;;1.20;;
9160;SDS011;4615;51.340;8.288;2023-04-24T11:47:50;1.25;;;1.25;;
9160;SDS011;4615;51.340;8.288;2023-04-24T11:50:17;1.48;;;1.20;;
9160;SDS011;4615;51.340;8.288;2023-04-24T11:52:45;1.50;;;1.40;;
9160;SDS011;4615;51.340;8.288;2023-04-24T11:55:22;2.30;;;1.40;;
9160;SDS011;4615;51.340;8.288;2023-04-24T11:57:49;1.35;;;1.20;;
9160;SDS011;4615;51.340;8.288;2023-04-24T12:00:18;1.30;;;1.20;;
9160;SDS011;4615;51.340;8.288;2023-04-24T12:02:45;1.50;;;1.40;;
9160;SDS011;4615;51.340;8.288;2023-04-24T12:05:18;1.50;;;1.40;;
9160;SDS011;4615;51.340;8.288;2023-04-24T12:07:45;1.60;;;1.50;;
9160;SDS011;4615;51.340;8.288;2023-04-24T12:10:11;1.92;;;1.73;;
9160;SDS011;4615;51.340;8.288;2023-04-24T12:12:38;1.90;;;1.80;;
9160;SDS011;4615;51.340;8.288;2023-04-24T12:15:06;2.20;;;2.00;;
9160;SDS011;4615;51.340;8.288;2023-04-24T12:17:34;2.35;;;2.08;;
9160;SDS011;4615;51.340;8.288;2023-04-24T12:20:02;2.33;;;2.13;;
9160;SDS011;4615;51.340;8.288;2023-04-24T12:22:42;3.17;;;2.33;;
9160;SDS011;4615;51.340;8.288;2023-04-24T12:25:09;2.72;;;2.53;;
9160;SDS011;4615;51.340;8.288;2023-04-24T12:27:36;2.60;;;2.40;;
9160;SDS011;4615;51.340;8.288;2023-04-24T12:30:03;2.50;;;2.30;;
9160;SDS011;4615;51.340;8.288;2023-04-24T12:32:30;2.50;;;2.30;;
9160;SDS011;4615;51.340;8.288;2023-04-24T12:34:58;3.07;;;2.77;;
9160;SDS011;4615;51.340;8.288;2023-04-24T12:37:24;3.25;;;2.80;;
9160;SDS011;4615;51.340;8.288;2023-04-24T12:39:58;4.55;;;3.20;;
9160;SDS011;4615;51.340;8.288;2023-04-24T12:42:25;3.60;;;3.20;;
9160;SDS011;4615;51.340;8.288;2023-04-24T12:44:55;4.40;;;4.00;;
9160;SDS011;4615;51.340;8.288;2023-04-24T12:47:22;5.35;;;4.20;;
9160;SDS011;4615;51.340;8.288;2023-04-24T12:49:48;5.60;;;4.30;;
9160;SDS011;4615;51.340;8.288;2023-04-24T12:52:17;5.57;;;4.38;;
9160;SDS011;4615;51.340;8.288;2023-04-24T12:54:45;5.22;;;4.60;;
9160;SDS011;4615;51.340;8.288;2023-04-24T12:57:11;6.93;;;5.00;;
9160;SDS011;4615;51.340;8.288;2023-04-24T12:59:37;7.68;;;5.72;;
9160;SDS011;4615;51.340;8.288;2023-04-24T13:02:04;6.82;;;5.88;;
9160;SDS011;4615;51.340;8.288;2023-04-24T13:04:31;7.30;;;6.28;;
9160;SDS011;4615;51.340;8.288;2023-04-24T13:06:58;8.60;;;6.72;;
9160;SDS011;4615;51.340;8.288;2023-04-24T13:09:26;7.77;;;6.60;;
9160;SDS011;4615;51.340;8.288;2023-04-24T13:11:52;8.83;;;7.93;;
9160;SDS011;4615;51.340;8.288;2023-04-24T13:14:21;7.82;;;7.03;;
9160;SDS011;4615;51.340;8.288;2023-04-24T13:16:48;7.25;;;6.53;;
9160;SDS011;4615;51.340;8.288;2023-04-24T13:19:14;8.80;;;6.43;;
9160;SDS011;4615;51.340;8.288;2023-04-24T13:21:42;6.82;;;5.70;;
9160;SDS011;4615;51.340;8.288;2023-04-24T13:24:09;6.00;;;5.03;;
9160;SDS011;4615;51.340;8.288;2023-04-24T13:26:37;7.70;;;5.10;;
9160;SDS011;4615;51.340;8.288;2023-04-24T13:29:03;8.90;;;4.83;;
9160;SDS011;4615;51.340;8.288;2023-04-24T13:31:30;6.47;;;4.45;;
9160;SDS011;4615;51.340;8.288;2023-04-24T13:33:56;6.95;;;4.72;;
9160;SDS011;4615;51.340;8.288;2023-04-24T13:36:23;8.95;;;5.03;;
9160;SDS011;4615;51.340;8.288;2023-04-24T13:38:49;7.43;;;4.60;;
9160;SDS011;4615;51.340;8.288;2023-04-24T13:41:18;8.93;;;4.75;;
9160;SDS011;4615;51.340;8.288;2023-04-24T13:43:46;8.32;;;4.28;;
9160;SDS011;4615;51.340;8.288;2023-04-24T13:46:12;7.60;;;4.80;;
9160;SDS011;4615;51.340;8.288;2023-04-24T13:48:39;7.13;;;4.50;;
9160;SDS011;4615;51.340;8.288;2023-04-24T13:51:05;8.15;;;4.97;;
9160;SDS011;4615;51.340;8.288;2023-04-24T13:53:31;7.70;;;4.60;;
9160;SDS011;4615;51.340;8.288;2023-04-24T13:56:01;9.18;;;4.38;;
9160;SDS011;4615;51.340;8.288;2023-04-24T13:58:27;8.45;;;4.22;;
9160;SDS011;4615;51.340;8.288;2023-04-24T14:00:55;5.70;;;3.83;;
9160;SDS011;4615;51.340;8.288;2023-04-24T14:03:21;7.45;;;4.70;;
9160;SDS011;4615;51.340;8.288;2023-04-24T14:05:48;7.25;;;4.18;;
9160;SDS011;4615;51.340;8.288;2023-04-24T14:08:14;6.60;;;4.15;;
9160;SDS011;4615;51.340;8.288;2023-04-24T14:10:42;7.63;;;3.75;;
9160;SDS011;4615;51.340;8.288;2023-04-24T14:13:08;7.95;;;4.13;;
9160;SDS011;4615;51.340;8.288;2023-04-24T14:15:35;9.07;;;3.95;;
9160;SDS011;4615;51.340;8.288;2023-04-24T14:18:02;6.60;;;3.65;;
9160;SDS011;4615;51.340;8.288;2023-04-24T14:20:29;5.97;;;3.67;;
9160;SDS011;4615;51.340;8.288;2023-04-24T14:22:56;4.68;;;3.28;;
9160;SDS011;4615;51.340;8.288;2023-04-24T14:25:24;6.32;;;3.40;;
9160;SDS011;4615;51.340;8.288;2023-04-24T14:27:50;5.05;;;3.45;;
9160;SDS011;4615;51.340;8.288;2023-04-24T14:30:16;4.77;;;3.53;;
9160;SDS011;4615;51.340;8.288;2023-04-24T14:32:43;5.93;;;3.05;;
9160;SDS011;4615;51.340;8.288;2023-04-24T14:35:11;6.20;;;3.20;;
9160;SDS011;4615;51.340;8.288;2023-04-24T14:37:37;5.75;;;3.10;;
9160;SDS011;4615;51.340;8.288;2023-04-24T14:40:06;4.38;;;3.10;;
9160;SDS011;4615;51.340;8.288;2023-04-24T14:42:33;4.20;;;3.78;;
9160;SDS011;4615;51.340;8.288;2023-04-24T14:45:00;5.70;;;3.17;;
9160;SDS011;4615;51.340;8.288;2023-04-24T14:47:26;5.43;;;3.15;;
9160;SDS011;4615;51.340;8.288;2023-04-24T14:49:53;5.53;;;3.37;;
9160;SDS011;4615;51.340;8.288;2023-04-24T14:52:20;5.20;;;3.05;;
9160;SDS011;4615;51.340;8.288;2023-04-24T14:54:47;4.10;;;2.90;;
9160;SDS011;4615;51.340;8.288;2023-04-24T14:57:13;4.57;;;3.10;;
9160;SDS011;4615;51.340;8.288;2023-04-24T14:59:39;6.10;;;3.20;;
9160;SDS011;4615;51.340;8.288;2023-04-24T15:02:06;3.75;;;2.60;;
9160;SDS011;4615;51.340;8.288;2023-04-24T15:04:32;4.65;;;2.50;;
9160;SDS011;4615;51.340;8.288;2023-04-24T15:06:59;4.22;;;2.65;;
9160;SDS011;4615;51.340;8.288;2023-04-24T15:09:26;4.63;;;2.42;;
9160;SDS011;4615;51.340;8.288;2023-04-24T15:11:53;3.90;;;2.30;;
9160;SDS011;4615;51.340;8.288;2023-04-24T15:14:19;4.60;;;2.30;;
9160;SDS011;4615;51.340;8.288;2023-04-24T15:16:46;3.50;;;2.22;;
9160;SDS011;4615;51.340;8.288;2023-04-24T15:19:12;4.35;;;2.30;;